createdAt,value
2019-04-13T00:02:38.484Z,2.57
2019-04-13T00:05:34.826Z,2.56
2019-04-13T00:08:12.228Z,2.55
2019-04-13T00:11:04.294Z,2.60
2019-04-13T00:13:49.680Z,2.67
2019-04-13T00:16:22.632Z,2.68
2019-04-13T00:18:55.103Z,2.75
2019-04-13T00:21:27.757Z,2.62
2019-04-13T00:24:02.516Z,2.59
2019-04-13T00:26:35.153Z,2.64
2019-04-13T00:29:07.637Z,2.59
2019-04-13T00:31:40.532Z,2.54
2019-04-13T00:34:13.055Z,2.53
2019-04-13T00:36:51.406Z,2.37
2019-04-13T00:39:26.877Z,2.29
2019-04-13T00:42:01.371Z,2.21
2019-04-13T00:44:35.461Z,2.21
2019-04-13T00:47:08.699Z,2.25
2019-04-13T00:49:43.685Z,2.31
2019-04-13T00:52:21.645Z,2.37
2019-04-13T00:54:58.177Z,2.45
2019-04-13T00:57:31.401Z,2.44
2019-04-13T01:00:07.865Z,2.44
2019-04-13T01:02:40.523Z,2.51
2019-04-13T01:05:15.190Z,2.46
2019-04-13T01:07:49.134Z,2.47
2019-04-13T01:10:23.375Z,2.52
2019-04-13T01:12:58.426Z,2.57
2019-04-13T01:15:33.796Z,2.54
2019-04-13T01:18:07.105Z,2.55
2019-04-13T01:20:39.603Z,2.57
2019-04-13T01:23:15.489Z,2.51
2019-04-13T01:25:50.556Z,2.43
2019-04-13T01:28:24.590Z,2.49
2019-04-13T01:31:02.281Z,2.40
2019-04-13T01:33:35.766Z,2.28
2019-04-13T01:36:09.883Z,2.30
2019-04-13T01:38:46.274Z,2.31
2019-04-13T01:41:20.371Z,2.32
2019-04-13T01:43:56.185Z,2.38
2019-04-13T01:46:31.799Z,2.27
2019-04-13T01:49:05.714Z,2.25
2019-04-13T01:51:43.158Z,2.22
2019-04-13T01:54:17.643Z,2.22
2019-04-13T01:56:50.885Z,2.25
2019-04-13T01:59:27.599Z,2.24
2019-04-13T02:02:40.535Z,2.28
2019-04-13T02:05:27.988Z,2.21
2019-04-13T02:08:26.985Z,2.21
2019-04-13T02:11:04.997Z,2.22
2019-04-13T02:13:38.654Z,2.11
2019-04-13T02:16:13.570Z,1.98
2019-04-13T02:18:46.411Z,1.90
2019-04-13T02:21:19.948Z,1.88
2019-04-13T02:23:53.862Z,1.92
2019-04-13T02:26:29.844Z,1.89
2019-04-13T02:29:03.266Z,1.82
2019-04-13T02:31:37.673Z,1.83
2019-04-13T02:34:12.078Z,1.85
2019-04-13T02:36:44.636Z,1.75
2019-04-13T02:39:19.174Z,1.72
2019-04-13T02:41:54.402Z,1.82
2019-04-13T02:44:27.483Z,1.83
2019-04-13T02:47:02.062Z,1.80
2019-04-13T02:49:34.616Z,1.72
2019-04-13T02:52:10.662Z,1.74
2019-04-13T02:54:45.367Z,1.70
2019-04-13T02:57:18.813Z,1.65
2019-04-13T02:59:54.415Z,1.63
2019-04-13T03:02:27.322Z,1.67
2019-04-13T03:05:01.289Z,1.68
2019-04-13T03:07:36.016Z,1.65
2019-04-13T03:10:11.514Z,1.67
2019-04-13T03:12:45.803Z,1.62
2019-04-13T03:15:18.958Z,1.43
2019-04-13T03:18:01.004Z,1.38
2019-04-13T03:20:34.633Z,1.38
2019-04-13T03:23:08.920Z,1.28
2019-04-13T03:25:42.750Z,1.21
2019-04-13T03:28:15.270Z,1.28
2019-04-13T03:30:50.093Z,1.23
2019-04-13T03:33:25.864Z,1.18
2019-04-13T03:35:59.843Z,1.29
2019-04-13T03:38:33.310Z,1.23
2019-04-13T03:41:14.866Z,1.12
2019-04-13T03:43:48.076Z,1.04
2019-04-13T03:46:21.767Z,1.02
2019-04-13T03:48:56.639Z,1.00
2019-04-13T03:51:29.838Z,0.99
2019-04-13T03:54:02.323Z,0.97
2019-04-13T03:56:36.564Z,1.13
2019-04-13T03:59:11.323Z,1.29
2019-04-13T04:01:45.605Z,1.22
2019-04-13T04:04:19.379Z,1.17
2019-04-13T04:06:53.410Z,1.29
2019-04-13T04:09:28.111Z,1.24
2019-04-13T04:12:02.331Z,1.27
2019-04-13T04:14:36.791Z,1.22
2019-04-13T04:17:10.479Z,1.19
2019-04-13T04:19:44.247Z,1.19
2019-04-13T04:22:18.912Z,1.13
2019-04-13T04:24:51.991Z,1.18
2019-04-13T04:27:24.461Z,1.17
2019-04-13T04:29:58.952Z,1.14
2019-04-13T04:32:31.455Z,1.15
2019-04-13T04:35:06.960Z,1.19
2019-04-13T04:37:42.289Z,1.16
2019-04-13T04:40:15.026Z,1.10
2019-04-13T04:42:49.489Z,1.14
2019-04-13T04:45:23.909Z,1.06
2019-04-13T04:48:00.466Z,1.04
2019-04-13T04:50:38.066Z,1.14
2019-04-13T04:53:12.202Z,1.24
2019-04-13T04:55:45.775Z,1.18
2019-04-13T04:58:30.123Z,1.09
2019-04-13T05:01:02.843Z,1.09
2019-04-13T05:03:37.667Z,1.07
2019-04-13T05:06:12.698Z,1.09
2019-04-13T05:08:46.526Z,1.02
2019-04-13T05:11:20.728Z,1.02
2019-04-13T05:13:56.798Z,1.04
2019-04-13T05:16:31.306Z,1.12
2019-04-13T05:19:10.057Z,1.20
2019-04-13T05:21:42.709Z,1.25
2019-04-13T05:24:15.323Z,1.23
2019-04-13T05:26:48.286Z,1.18
2019-04-13T05:29:23.450Z,1.18
2019-04-13T05:31:58.495Z,1.19
2019-04-13T05:34:31.324Z,1.33
2019-04-13T05:37:04.641Z,1.30
2019-04-13T05:39:38.940Z,1.29
2019-04-13T05:42:14.518Z,1.20
2019-04-13T05:44:47.789Z,1.19
2019-04-13T05:47:21.983Z,1.20
2019-04-13T05:49:57.540Z,1.23
2019-04-13T05:52:30.963Z,1.24
2019-04-13T05:55:06.769Z,1.21
2019-04-13T05:57:40.314Z,1.25
2019-04-13T06:00:15.897Z,1.27
2019-04-13T06:03:00.337Z,1.26
2019-04-13T06:05:32.958Z,1.27
2019-04-13T06:08:08.945Z,1.26
2019-04-13T06:10:42.529Z,1.23
2019-04-13T06:13:17.343Z,1.28
2019-04-13T06:15:50.323Z,1.30
2019-04-13T06:18:23.569Z,1.28
2019-04-13T06:20:56.909Z,1.35
2019-04-13T06:23:31.625Z,1.33
2019-04-13T06:26:06.504Z,1.37
2019-04-13T06:28:48.653Z,1.42
2019-04-13T06:31:49.402Z,1.46
2019-04-13T06:34:39.800Z,1.57
2019-04-13T06:37:13.389Z,1.72
2019-04-13T06:39:47.872Z,1.87
2019-04-13T06:42:20.676Z,2.04
2019-04-13T06:44:55.882Z,2.16
2019-04-13T06:47:32.383Z,2.28
2019-04-13T06:50:08.963Z,2.31
2019-04-13T06:52:45.215Z,2.35
2019-04-13T06:55:20.438Z,2.43
2019-04-13T06:58:00.840Z,2.44
2019-04-13T07:00:33.584Z,2.47
2019-04-13T07:03:06.683Z,2.52
2019-04-13T07:05:42.293Z,2.62
2019-04-13T07:08:38.378Z,2.73
2019-04-13T07:11:28.899Z,2.86
2019-04-13T07:14:03.653Z,2.96
2019-04-13T07:16:44.152Z,3.10
2019-04-13T07:19:18.208Z,3.12
2019-04-13T07:21:53.187Z,3.17
2019-04-13T07:24:29.635Z,3.19
2019-04-13T07:27:10.049Z,3.22
2019-04-13T07:29:43.989Z,3.31
2019-04-13T07:32:19.812Z,3.35
2019-04-13T07:34:53.361Z,3.37
2019-04-13T07:37:36.631Z,3.39
2019-04-13T07:40:13.639Z,3.50
2019-04-13T07:42:48.097Z,3.81
2019-04-13T07:45:31.627Z,4.15
2019-04-13T07:48:16.993Z,4.64
2019-04-13T07:51:01.718Z,5.78
2019-04-13T07:53:37.212Z,6.79
2019-04-13T07:56:09.809Z,7.23
2019-04-13T07:58:47.089Z,7.62
2019-04-13T08:01:23.271Z,8.17
2019-04-13T08:03:56.783Z,8.65
2019-04-13T08:06:31.727Z,8.96
2019-04-13T08:09:06.167Z,9.00
2019-04-13T08:11:38.737Z,8.28
2019-04-13T08:14:18.347Z,8.17
2019-04-13T08:16:50.896Z,7.68
2019-04-13T08:19:24.627Z,6.80
2019-04-13T08:21:58.969Z,6.17
2019-04-13T08:24:33.727Z,5.87
2019-04-13T08:27:07.650Z,6.12
2019-04-13T08:29:44.364Z,6.15
2019-04-13T08:32:17.948Z,6.92
2019-04-13T08:34:50.874Z,7.53
2019-04-13T08:37:23.792Z,7.51
2019-04-13T08:40:02.529Z,7.61
2019-04-13T08:42:35.626Z,7.09
2019-04-13T08:45:12.663Z,6.32
2019-04-13T08:47:46.027Z,6.20
2019-04-13T08:50:19.592Z,6.48
2019-04-13T08:52:52.506Z,6.59
2019-04-13T08:55:25.864Z,6.63
2019-04-13T08:57:59.174Z,6.81
2019-04-13T09:00:33.291Z,6.48
2019-04-13T09:03:06.171Z,6.01
2019-04-13T09:05:38.759Z,5.57
2019-04-13T09:08:12.900Z,5.38
2019-04-13T09:10:57.952Z,5.34
2019-04-13T09:13:32.640Z,5.61
2019-04-13T09:16:06.512Z,5.55
2019-04-13T09:19:22.951Z,6.33
2019-04-13T09:22:20.694Z,7.62
2019-04-13T09:24:55.131Z,7.16
2019-04-13T09:27:30.942Z,6.57
2019-04-13T09:30:15.001Z,6.37
2019-04-13T09:32:47.746Z,6.82
2019-04-13T09:35:25.300Z,7.00
2019-04-13T09:37:58.987Z,7.15
2019-04-13T09:40:31.621Z,7.78
2019-04-13T09:43:21.347Z,7.71
2019-04-13T09:45:55.045Z,7.08
2019-04-13T09:48:28.105Z,6.67
2019-04-13T09:51:00.778Z,6.64
2019-04-13T09:53:33.306Z,6.75
2019-04-13T09:56:07.007Z,6.58
2019-04-13T09:58:39.564Z,6.48
2019-04-13T10:01:12.091Z,6.51
2019-04-13T10:03:46.350Z,6.44
2019-04-13T10:06:19.110Z,6.48
2019-04-13T10:08:56.086Z,6.57
2019-04-13T10:11:36.457Z,6.67
2019-04-13T10:14:19.591Z,6.70
2019-04-13T10:16:59.931Z,6.56
2019-04-13T10:19:34.576Z,6.39
2019-04-13T10:22:07.319Z,6.33
2019-04-13T10:24:40.169Z,6.53
2019-04-13T10:27:13.171Z,6.97
2019-04-13T10:29:49.633Z,7.39
2019-04-13T10:32:23.465Z,7.38
2019-04-13T10:34:56.507Z,7.58
2019-04-13T10:37:29.229Z,8.02
2019-04-13T10:40:01.862Z,8.53
2019-04-13T10:42:36.795Z,8.84
2019-04-13T10:45:31.223Z,8.95
2019-04-13T10:48:36.352Z,8.67
2019-04-13T10:51:21.840Z,7.94
2019-04-13T10:53:56.940Z,7.86
2019-04-13T10:56:29.850Z,8.52
2019-04-13T10:59:02.458Z,9.08
2019-04-13T11:01:36.129Z,9.62
2019-04-13T11:04:09.227Z,9.83
2019-04-13T11:06:41.899Z,9.70
2019-04-13T11:09:21.291Z,9.55
2019-04-13T11:11:54.730Z,9.46
2019-04-13T11:14:29.850Z,9.29
2019-04-13T11:17:06.557Z,8.87
2019-04-13T11:19:41.419Z,8.42
2019-04-13T11:22:21.566Z,8.30
2019-04-13T11:24:55.113Z,8.99
2019-04-13T11:27:28.115Z,9.81
2019-04-13T11:30:08.063Z,10.56
2019-04-13T11:32:41.638Z,10.93
2019-04-13T11:35:15.818Z,10.39
2019-04-13T11:37:48.935Z,9.35
2019-04-13T11:40:22.104Z,8.75
2019-04-13T11:43:02.442Z,8.63
2019-04-13T11:45:41.898Z,9.12
2019-04-13T11:48:22.302Z,9.11
2019-04-13T11:50:59.655Z,8.93
2019-04-13T11:53:33.105Z,8.79
2019-04-13T11:56:06.902Z,8.77
2019-04-13T11:58:39.502Z,8.64
2019-04-13T12:01:30.135Z,8.59
2019-04-13T12:04:14.008Z,8.60
2019-04-13T12:07:25.071Z,9.10
2019-04-13T12:10:21.775Z,9.77
2019-04-13T12:13:20.473Z,9.80
2019-04-13T12:16:08.224Z,9.89
2019-04-13T12:18:46.615Z,10.40
2019-04-13T12:21:42.445Z,10.15
2019-04-13T12:24:21.606Z,9.78
2019-04-13T12:26:55.616Z,9.73
2019-04-13T12:29:31.620Z,9.73
2019-04-13T12:32:14.080Z,9.47
2019-04-13T12:34:48.185Z,9.55
2019-04-13T12:37:21.092Z,9.53
2019-04-13T12:40:12.330Z,9.58
2019-04-13T12:42:45.442Z,9.74
2019-04-13T12:45:18.484Z,9.98
2019-04-13T12:47:54.763Z,10.15
2019-04-13T12:50:33.206Z,10.41
2019-04-13T12:53:10.268Z,10.64
2019-04-13T12:55:42.908Z,10.39
2019-04-13T12:58:22.890Z,10.10
2019-04-13T13:01:12.527Z,10.12
2019-04-13T13:03:46.348Z,10.16
2019-04-13T13:06:25.359Z,10.03
2019-04-13T13:09:00.137Z,10.10
2019-04-13T13:11:34.448Z,9.90
2019-04-13T13:14:08.284Z,9.35
2019-04-13T13:16:46.100Z,8.94
2019-04-13T13:19:19.204Z,8.78
2019-04-13T13:21:52.146Z,8.63
2019-04-13T13:24:24.871Z,8.44
2019-04-13T13:27:02.072Z,8.15
2019-04-13T13:29:35.920Z,7.95
2019-04-13T13:32:08.727Z,7.88
2019-04-13T13:34:43.842Z,7.96
2019-04-13T13:37:16.636Z,7.93
2019-04-13T13:39:50.723Z,7.82
2019-04-13T13:42:23.557Z,7.86
2019-04-13T13:44:56.719Z,7.93
2019-04-13T13:47:32.467Z,8.05
2019-04-13T13:50:07.897Z,7.97
2019-04-13T13:52:40.592Z,8.06
2019-04-13T13:55:14.271Z,8.30
2019-04-13T13:57:53.631Z,8.69
2019-04-13T14:00:40.788Z,8.67
2019-04-13T14:03:13.729Z,8.65
2019-04-13T14:05:48.324Z,8.77
2019-04-13T14:08:21.830Z,8.77
2019-04-13T14:10:54.803Z,8.90
2019-04-13T14:13:29.767Z,8.69
2019-04-13T14:16:02.670Z,8.51
2019-04-13T14:18:35.630Z,8.44
2019-04-13T14:21:15.502Z,8.56
2019-04-13T14:23:58.306Z,8.81
2019-04-13T14:26:37.295Z,9.20
2019-04-13T14:29:11.379Z,9.72
2019-04-13T14:31:44.220Z,10.09
2019-04-13T14:34:17.647Z,10.32
2019-04-13T14:36:50.991Z,10.66
2019-04-13T14:39:23.767Z,10.52
2019-04-13T14:41:58.890Z,10.25
2019-04-13T14:44:33.419Z,9.70
2019-04-13T14:47:11.581Z,9.24
2019-04-13T14:49:48.871Z,9.10
2019-04-13T14:52:26.645Z,8.99
2019-04-13T14:55:02.564Z,8.99
2019-04-13T14:57:39.659Z,9.07
2019-04-13T15:00:21.086Z,8.96
2019-04-13T15:03:00.197Z,8.90
2019-04-13T15:05:33.784Z,8.82
2019-04-13T15:08:10.660Z,8.82
2019-04-13T15:10:46.991Z,8.75
2019-04-13T15:13:23.401Z,8.73
2019-04-13T15:15:57.525Z,8.61
2019-04-13T15:18:50.261Z,8.24
2019-04-13T15:21:37.728Z,7.98
2019-04-13T15:24:21.017Z,7.91
2019-04-13T15:26:54.283Z,7.90
2019-04-13T15:29:40.563Z,8.11
2019-04-13T15:32:22.850Z,8.49
2019-04-13T15:34:57.895Z,8.70
2019-04-13T15:37:43.024Z,8.70
2019-04-13T15:40:23.427Z,8.72
2019-04-13T15:43:04.587Z,8.86
2019-04-13T15:45:48.991Z,8.94
2019-04-13T15:48:25.945Z,8.79
2019-04-13T15:51:06.013Z,8.38
2019-04-13T15:53:45.161Z,8.01
2019-04-13T15:56:19.512Z,7.57
2019-04-13T15:58:55.331Z,7.24
2019-04-13T16:01:32.654Z,6.86
2019-04-13T16:04:05.811Z,6.71
2019-04-13T16:06:46.354Z,6.66
2019-04-13T16:09:49.774Z,6.64
2019-04-13T16:12:25.555Z,6.62
2019-04-13T16:14:59.545Z,6.90
2019-04-13T16:17:33.791Z,7.22
2019-04-13T16:20:07.622Z,7.43
2019-04-13T16:22:42.958Z,7.56
2019-04-13T16:25:16.849Z,7.58
2019-04-13T16:28:04.314Z,7.43
2019-04-13T16:30:57.977Z,7.33
2019-04-13T16:33:52.700Z,7.28
2019-04-13T16:36:33.307Z,7.17
2019-04-13T16:39:13.457Z,7.23
2019-04-13T16:42:02.680Z,7.26
2019-04-13T16:44:47.056Z,7.34
2019-04-13T16:47:39.488Z,7.54
2019-04-13T16:50:33.084Z,7.71
2019-04-13T16:53:28.757Z,7.67
2019-04-13T16:56:12.411Z,7.50
2019-04-13T16:58:57.947Z,7.28
2019-04-13T17:01:45.956Z,7.14
2019-04-13T17:04:31.153Z,6.96
2019-04-13T17:07:09.165Z,6.70
2019-04-13T17:16:16.996Z,6.64
2019-04-13T17:19:03.373Z,6.63
2019-04-13T17:21:58.807Z,6.68
2019-04-13T17:24:51.526Z,6.61
2019-04-13T17:27:30.157Z,6.51
2019-04-13T17:30:13.265Z,6.45
2019-04-13T17:32:54.181Z,6.35
2019-04-13T17:36:02.655Z,6.19
2019-04-13T17:38:55.809Z,6.02
2019-04-13T17:41:40.981Z,5.87
2019-04-13T17:44:24.592Z,5.80
2019-04-13T17:47:16.664Z,5.53
2019-04-13T17:49:57.198Z,5.25
2019-04-13T17:52:55.002Z,5.07
2019-04-13T17:55:39.770Z,4.84
2019-04-13T17:58:33.325Z,4.76
2019-04-13T18:01:33.186Z,4.62
2019-04-13T18:04:45.749Z,4.39
2019-04-13T18:07:43.558Z,4.11
2019-04-13T18:10:32.758Z,3.93
2019-04-13T18:13:45.213Z,3.80
2019-04-13T18:16:32.195Z,3.71
2019-04-13T18:19:14.686Z,3.61
2019-04-13T18:21:55.774Z,3.43
2019-04-13T18:24:38.937Z,3.27
2019-04-13T18:27:13.329Z,3.14
2019-04-13T18:29:57.147Z,3.01
2019-04-13T18:32:42.797Z,2.93
2019-04-13T18:35:19.051Z,2.94
2019-04-13T18:37:52.190Z,2.85
2019-04-13T18:40:24.955Z,2.79
2019-04-13T18:43:09.201Z,2.80
2019-04-13T18:45:49.438Z,2.72
2019-04-13T18:48:22.884Z,2.71
2019-04-13T18:50:56.241Z,2.60
2019-04-13T18:53:29.968Z,2.49
2019-04-13T18:56:10.263Z,2.43
2019-04-13T18:58:47.896Z,2.40
2019-04-13T19:01:28.916Z,2.34
2019-04-13T19:04:05.037Z,2.32
2019-04-13T19:06:39.316Z,2.23
2019-04-13T19:09:20.474Z,2.22
2019-04-13T19:12:01.750Z,2.21
2019-04-13T19:14:35.569Z,2.33
2019-04-13T19:17:15.277Z,2.30
2019-04-13T19:19:48.630Z,2.27
2019-04-13T19:22:21.570Z,2.17
2019-04-13T19:24:54.272Z,2.17
2019-04-13T19:27:28.096Z,2.20
2019-04-13T19:30:05.204Z,2.21
2019-04-13T19:32:43.763Z,2.05
2019-04-13T19:35:21.849Z,2.00
2019-04-13T19:37:56.018Z,1.99
2019-04-13T19:40:29.637Z,2.03
2019-04-13T19:43:02.377Z,2.16
2019-04-13T19:45:35.447Z,2.16
2019-04-13T19:48:09.411Z,2.21
2019-04-13T19:50:42.863Z,2.35
2019-04-13T19:53:25.445Z,2.41
2019-04-13T19:56:06.278Z,2.35
2019-04-13T19:58:39.988Z,2.32
2019-04-13T20:01:16.503Z,2.20
2019-04-13T20:04:05.746Z,2.14
2019-04-13T20:06:42.766Z,2.02
2019-04-13T20:09:16.089Z,1.98
2019-04-13T20:11:48.727Z,1.85
2019-04-13T20:14:22.858Z,1.73
2019-04-13T20:16:56.351Z,1.68
2019-04-13T20:19:29.119Z,1.68
2019-04-13T20:22:03.003Z,1.79
2019-04-13T20:24:39.968Z,1.98
2019-04-13T20:27:15.259Z,2.09
2019-04-13T20:29:48.897Z,2.17
2019-04-13T20:32:23.114Z,2.19
2019-04-13T20:34:57.731Z,2.26
2019-04-13T20:37:33.843Z,2.18
2019-04-13T20:40:24.803Z,2.17
2019-04-13T20:42:59.097Z,2.05
2019-04-13T20:45:33.895Z,2.02
2019-04-13T20:48:12.335Z,1.97
2019-04-13T20:50:50.169Z,1.81
2019-04-13T20:53:24.885Z,1.73
2019-04-13T20:55:58.913Z,1.72
2019-04-13T20:58:32.113Z,1.73
2019-04-13T21:01:08.250Z,1.77
2019-04-13T21:03:44.750Z,1.87
2019-04-13T21:06:28.333Z,1.88
2019-04-13T21:09:02.941Z,1.82
2019-04-13T21:11:42.075Z,1.77
2019-04-13T21:14:25.180Z,1.82
2019-04-13T21:17:02.910Z,1.86
2019-04-13T21:19:37.063Z,1.85
2019-04-13T21:22:11.570Z,1.73
2019-04-13T21:24:45.835Z,1.65
2019-04-13T21:27:20.512Z,1.72
2019-04-13T21:29:56.771Z,1.73
2019-04-13T21:32:35.707Z,1.72
2019-04-13T21:35:14.278Z,1.71
2019-04-13T21:37:48.744Z,1.60
2019-04-13T21:40:27.337Z,1.56
2019-04-13T21:43:02.052Z,1.52
2019-04-13T21:45:36.433Z,1.49
2019-04-13T21:48:11.639Z,1.56
2019-04-13T21:50:58.787Z,1.60
2019-04-13T21:53:38.206Z,1.55
2019-04-13T21:56:12.269Z,1.56
2019-04-13T21:58:49.533Z,1.62
2019-04-13T22:01:58.395Z,1.61
2019-04-13T22:04:32.713Z,1.58
2019-04-13T22:07:07.201Z,1.65
2019-04-13T22:09:41.261Z,1.73
2019-04-13T22:12:15.474Z,1.81
2019-04-13T22:14:56.689Z,1.99
2019-04-13T22:17:33.863Z,2.04
2019-04-13T22:20:08.020Z,2.08
2019-04-13T22:22:41.035Z,2.06
2019-04-13T22:25:14.546Z,2.00
2019-04-13T22:27:55.681Z,1.96
2019-04-13T22:30:45.180Z,1.91
2019-04-13T22:33:17.653Z,1.90
2019-04-13T22:35:58.542Z,1.93
2019-04-13T22:38:31.015Z,1.82
2019-04-13T22:41:04.895Z,1.71
2019-04-13T22:43:39.833Z,1.77
2019-04-13T22:46:13.059Z,1.75
2019-04-13T22:49:10.645Z,1.69
2019-04-13T22:52:06.460Z,1.67
2019-04-13T22:54:47.858Z,1.92
2019-04-13T22:57:30.460Z,2.09
2019-04-13T23:00:14.726Z,2.12
2019-04-13T23:02:51.867Z,2.08
2019-04-13T23:05:24.683Z,2.20
2019-04-13T23:08:00.920Z,2.31
2019-04-13T23:10:33.497Z,2.40
2019-04-13T23:13:06.219Z,2.38
2019-04-13T23:15:41.028Z,2.36
2019-04-13T23:18:16.963Z,2.36
2019-04-13T23:20:49.662Z,2.40
2019-04-13T23:23:24.400Z,2.49
2019-04-13T23:25:57.312Z,2.58
2019-04-13T23:28:32.077Z,2.55
2019-04-13T23:31:06.313Z,2.55
2019-04-13T23:33:39.077Z,2.43
2019-04-13T23:36:13.598Z,2.37
2019-04-13T23:38:46.815Z,2.22
2019-04-13T23:41:19.437Z,2.11
2019-04-13T23:43:51.955Z,2.01
2019-04-13T23:46:27.009Z,1.84
2019-04-13T23:48:59.519Z,1.72
2019-04-13T23:51:33.953Z,1.64
2019-04-13T23:54:08.619Z,1.56
2019-04-13T23:56:56.368Z,1.57
2019-04-13T23:59:37.148Z,1.50
